Kennedy Shores, Texas
Current Conditions -  °F | °C
As of 3:53 PM on Wednesday 26 Nov 2014 (Local Time) from KBRO Reporting Station
Clear Clear  
Wind Chill: 72°   Ceiling: Unl
Heat Index: 72°   Visibility: 10mi
Dew Point: 46°   Wind: 13mph
Humidity: 40%   Direction: 190°S
Pressure: 30.23"   Gusts: NA
Location:  26.0002°N, 97.5729°W
Report Text: KBRO 262153Z 19011KT 10SM CLR 22/08 A3023 RMK AO2 SLP234 T02220078
Loading
Personal Weather Stations






























Interactive Weather Map New forecast layout! Learn more

10-Day Weather Forecast

Advertisements
Track Severe Weather on mobile